Cachoeira Dourada, Brazil
Current Conditions -  °F | °C
As of 12:00 AM on Monday 22 Dec 2014 (Local Time) from SBUL Reporting Station
Scattered Clouds Scattered Clouds  
Wind Chill: 68°   Ceiling: Unl
Heat Index: 68°   Visibility: 6mi
Dew Point: 66°   Wind: 5mph
Humidity: 94%   Direction: 360°N
Pressure: 30.06"   Gusts: NA
Location:  18.52°S, 49.5°W
Report Text: SBUL 220200Z 36004KT 9999 FEW001 SCT070 20/19 Q1018
Loading
Personal Weather Stations






























Interactive Weather Map New forecast layout! Learn more

10-Day Weather Forecast

Advertisements
Track Severe Weather on mobile